createdAt,value
2022-09-17T00:01:31.278Z,12.76
2022-09-17T00:03:04.830Z,12.83
2022-09-17T00:04:36.604Z,12.91
2022-09-17T00:06:09.076Z,12.95
2022-09-17T00:07:40.495Z,12.94
2022-09-17T00:09:11.979Z,13.00
2022-09-17T00:10:44.816Z,13.02
2022-09-17T00:12:16.310Z,12.97
2022-09-17T00:13:48.264Z,12.93
2022-09-17T00:15:19.800Z,12.79
2022-09-17T00:16:51.489Z,12.81
2022-09-17T00:18:24.316Z,12.80
2022-09-17T00:19:55.889Z,12.75
2022-09-17T00:21:27.882Z,12.74
2022-09-17T00:22:59.352Z,12.74
2022-09-17T00:24:30.845Z,12.76
2022-09-17T00:26:05.187Z,12.81
2022-09-17T00:27:36.609Z,12.69
2022-09-17T00:29:08.152Z,12.56
2022-09-17T00:30:39.763Z,12.56
2022-09-17T00:32:11.190Z,12.61
2022-09-17T00:33:43.987Z,12.52
2022-09-17T00:35:15.549Z,12.54
2022-09-17T00:36:46.955Z,12.55
2022-09-17T00:38:18.386Z,12.65
2022-09-17T00:39:49.956Z,12.59
2022-09-17T00:41:22.345Z,12.50
2022-09-17T00:42:54.077Z,12.46
2022-09-17T00:44:42.522Z,12.38
2022-09-17T00:46:26.092Z,12.41
2022-09-17T00:47:58.737Z,12.39
2022-09-17T00:49:32.587Z,12.34
2022-09-17T00:51:05.789Z,12.28
2022-09-17T00:52:39.779Z,12.16
2022-09-17T00:54:11.742Z,12.22
2022-09-17T00:55:45.848Z,12.31
2022-09-17T00:57:17.382Z,12.31
2022-09-17T00:58:49.135Z,12.26
2022-09-17T01:00:21.165Z,12.24
2022-09-17T01:01:52.867Z,12.21
2022-09-17T01:03:24.473Z,12.18
2022-09-17T01:04:57.311Z,12.18
2022-09-17T01:06:32.848Z,12.17
2022-09-17T01:08:10.984Z,12.11
2022-09-17T01:09:50.029Z,12.07
2022-09-17T01:11:30.828Z,12.11
2022-09-17T01:13:09.095Z,12.10
2022-09-17T01:14:50.323Z,12.10
2022-09-17T01:16:29.039Z,12.19
2022-09-17T01:18:08.885Z,12.18
2022-09-17T01:19:48.167Z,12.19
2022-09-17T01:21:35.645Z,12.20
2022-09-17T01:23:21.726Z,12.21
2022-09-17T01:25:14.057Z,12.20
2022-09-17T01:27:02.628Z,12.30
2022-09-17T01:28:40.992Z,12.43
2022-09-17T01:30:18.094Z,12.47
2022-09-17T01:31:53.564Z,12.33
2022-09-17T01:33:30.177Z,12.38
2022-09-17T01:35:04.141Z,12.38
2022-09-17T01:36:45.439Z,12.38
2022-09-17T01:38:23.452Z,12.40
2022-09-17T01:40:00.879Z,12.38
2022-09-17T01:41:37.968Z,12.41
2022-09-17T01:43:13.319Z,12.40
2022-09-17T01:44:47.329Z,12.32
2022-09-17T01:46:22.192Z,12.38
2022-09-17T01:47:57.901Z,12.40
2022-09-17T01:49:31.318Z,12.40
2022-09-17T01:51:05.037Z,12.30
2022-09-17T01:52:37.971Z,12.21
2022-09-17T01:54:13.748Z,12.17
2022-09-17T01:55:46.370Z,12.24
2022-09-17T01:57:22.655Z,12.36
2022-09-17T01:58:57.025Z,12.50
2022-09-17T02:00:28.627Z,12.60
2022-09-17T02:02:03.235Z,12.60
2022-09-17T02:03:38.597Z,12.62
2022-09-17T02:05:14.023Z,12.57
2022-09-17T02:06:51.635Z,12.54
2022-09-17T02:08:24.427Z,12.43
2022-09-17T02:09:59.634Z,12.36
2022-09-17T02:11:32.850Z,12.42
2022-09-17T02:13:08.924Z,12.38
2022-09-17T02:14:44.752Z,12.30
2022-09-17T02:16:18.812Z,12.39
2022-09-17T02:17:57.274Z,12.47
2022-09-17T02:19:34.803Z,12.46
2022-09-17T02:21:08.801Z,12.51
2022-09-17T02:22:42.342Z,12.54
2022-09-17T02:24:19.863Z,12.49
2022-09-17T02:25:58.567Z,12.47
2022-09-17T02:27:37.973Z,12.40
2022-09-17T02:29:13.843Z,12.39
2022-09-17T02:30:45.444Z,12.41
2022-09-17T02:32:17.464Z,12.40
2022-09-17T02:33:50.328Z,12.36
2022-09-17T02:35:25.378Z,12.25
2022-09-17T02:36:58.600Z,12.20
2022-09-17T02:38:31.198Z,12.15
2022-09-17T02:40:05.442Z,12.12
2022-09-17T02:41:44.431Z,12.09
2022-09-17T02:43:23.627Z,12.05
2022-09-17T02:45:01.275Z,12.06
2022-09-17T02:46:45.045Z,12.12
2022-09-17T02:48:31.571Z,12.12
2022-09-17T02:50:17.052Z,12.13
2022-09-17T02:51:53.685Z,12.18
2022-09-17T02:53:31.845Z,12.18
2022-09-17T02:55:07.829Z,12.12
2022-09-17T02:56:46.063Z,12.07
2022-09-17T02:58:22.214Z,12.06
2022-09-17T02:59:58.699Z,12.02
2022-09-17T03:01:32.949Z,12.02
2022-09-17T03:03:08.749Z,12.00
2022-09-17T03:04:40.425Z,11.98
2022-09-17T03:06:12.084Z,11.92
2022-09-17T03:07:44.904Z,11.88
2022-09-17T03:09:16.372Z,11.85
2022-09-17T03:10:49.309Z,11.82
2022-09-17T03:12:20.867Z,11.83
2022-09-17T03:13:52.565Z,11.85
2022-09-17T03:15:24.028Z,11.88
2022-09-17T03:16:55.580Z,11.86
2022-09-17T03:18:27.145Z,11.83
2022-09-17T03:19:59.604Z,11.84
2022-09-17T03:21:31.403Z,11.81
2022-09-17T03:23:04.355Z,11.78
2022-09-17T03:24:35.871Z,11.76
2022-09-17T03:26:08.754Z,11.77
2022-09-17T03:27:40.343Z,11.79
2022-09-17T03:29:11.834Z,11.80
2022-09-17T03:30:44.491Z,11.80
2022-09-17T03:32:15.994Z,11.82
2022-09-17T03:33:50.091Z,11.85
2022-09-17T03:35:21.581Z,11.89
2022-09-17T03:36:55.340Z,11.86
2022-09-17T03:38:28.555Z,11.83
2022-09-17T03:40:00.049Z,11.86
2022-09-17T03:41:32.991Z,11.86
2022-09-17T03:43:04.665Z,11.83
2022-09-17T03:44:36.133Z,11.87
2022-09-17T03:46:07.731Z,11.85
2022-09-17T03:47:39.184Z,11.89
2022-09-17T03:49:10.747Z,11.82
2022-09-17T03:50:43.342Z,11.82
2022-09-17T03:52:14.776Z,11.79
2022-09-17T03:53:47.856Z,11.78
2022-09-17T03:55:19.314Z,11.80
2022-09-17T03:56:51.851Z,11.78
2022-09-17T03:58:23.754Z,11.76
2022-09-17T03:59:55.190Z,11.71
2022-09-17T04:01:27.039Z,11.66
2022-09-17T04:02:58.540Z,11.63
2022-09-17T04:04:30.069Z,11.58
2022-09-17T04:06:01.501Z,11.56
2022-09-17T04:07:32.921Z,11.57
2022-09-17T04:09:05.987Z,11.58
2022-09-17T04:10:37.429Z,11.64
2022-09-17T04:12:08.948Z,11.65
2022-09-17T04:13:40.501Z,11.61
2022-09-17T04:15:11.950Z,11.54
2022-09-17T04:16:43.923Z,11.51
2022-09-17T04:18:15.529Z,11.51
2022-09-17T04:19:46.977Z,11.47
2022-09-17T04:21:18.473Z,11.48
2022-09-17T04:22:49.959Z,11.45
2022-09-17T04:24:22.782Z,11.47
2022-09-17T04:25:54.456Z,11.43
2022-09-17T04:27:25.931Z,11.43
2022-09-17T04:28:57.420Z,11.44
2022-09-17T04:30:28.852Z,11.43
2022-09-17T04:32:00.633Z,11.47
2022-09-17T04:33:32.134Z,11.52
2022-09-17T04:35:03.740Z,11.58
2022-09-17T04:36:35.157Z,11.53
2022-09-17T04:38:06.652Z,11.54
2022-09-17T04:39:40.149Z,11.51
2022-09-17T04:41:11.578Z,11.49
2022-09-17T04:42:43.060Z,11.44
2022-09-17T04:44:14.488Z,11.46
2022-09-17T04:45:46.235Z,11.46
2022-09-17T04:47:17.698Z,11.50
2022-09-17T04:48:49.196Z,11.48
2022-09-17T04:50:21.075Z,11.45
2022-09-17T04:51:52.599Z,11.47
2022-09-17T04:53:24.231Z,11.50
2022-09-17T04:54:57.020Z,11.57
2022-09-17T04:56:28.505Z,11.61
2022-09-17T04:57:59.931Z,11.68
2022-09-17T04:59:31.419Z,11.73
2022-09-17T05:01:03.188Z,11.68
2022-09-17T05:02:34.732Z,11.61
2022-09-17T05:04:06.205Z,11.64
2022-09-17T05:05:37.713Z,11.72
2022-09-17T05:07:13.285Z,11.77
2022-09-17T05:08:45.360Z,11.79
2022-09-17T05:10:19.671Z,11.82
2022-09-17T05:11:51.104Z,11.71
2022-09-17T05:13:22.859Z,11.66
2022-09-17T05:14:54.283Z,11.65
2022-09-17T05:16:25.760Z,11.64
2022-09-17T05:17:57.254Z,11.64
2022-09-17T05:19:28.693Z,11.65
2022-09-17T05:21:00.116Z,11.75
2022-09-17T05:22:31.633Z,11.77
2022-09-17T05:24:03.333Z,11.83
2022-09-17T05:25:36.116Z,11.87
2022-09-17T05:27:08.823Z,11.90
2022-09-17T05:28:40.242Z,11.94
2022-09-17T05:30:13.000Z,12.01
2022-09-17T05:31:44.620Z,12.04
2022-09-17T05:33:16.114Z,12.07
2022-09-17T05:34:47.581Z,12.05
2022-09-17T05:36:19.029Z,12.04
2022-09-17T05:37:50.557Z,12.02
2022-09-17T05:39:25.268Z,12.02
2022-09-17T05:40:58.064Z,12.09
2022-09-17T05:42:29.520Z,12.12
2022-09-17T05:44:01.132Z,12.08
2022-09-17T05:45:33.279Z,12.08
2022-09-17T05:47:05.000Z,12.06
2022-09-17T05:48:36.479Z,12.06
2022-09-17T05:50:08.378Z,11.96
2022-09-17T05:51:39.831Z,11.97
2022-09-17T05:53:11.827Z,12.02
2022-09-17T05:54:43.512Z,12.12
2022-09-17T05:56:16.286Z,12.14
2022-09-17T05:57:47.886Z,12.14
2022-09-17T05:59:19.351Z,12.14
2022-09-17T06:00:50.981Z,12.17
2022-09-17T06:02:22.520Z,12.17
2022-09-17T06:03:54.599Z,12.17
2022-09-17T06:05:26.101Z,12.21
2022-09-17T06:06:57.552Z,12.21
2022-09-17T06:08:29.335Z,12.16
2022-09-17T06:10:00.811Z,12.21
2022-09-17T06:11:33.640Z,12.25
2022-09-17T06:13:05.336Z,12.26
2022-09-17T06:14:36.898Z,12.24
2022-09-17T06:16:08.374Z,12.18
2022-09-17T06:17:40.342Z,12.16
2022-09-17T06:19:11.836Z,12.11
2022-09-17T06:20:43.292Z,12.11
2022-09-17T06:22:14.761Z,12.08
2022-09-17T06:23:46.251Z,12.10
2022-09-17T06:25:17.702Z,12.06
2022-09-17T06:26:51.333Z,12.02
2022-09-17T06:28:22.965Z,12.08
2022-09-17T06:29:54.436Z,12.13
2022-09-17T06:31:26.011Z,12.10
2022-09-17T06:32:59.337Z,12.00
2022-09-17T06:34:30.851Z,12.04
2022-09-17T06:36:03.769Z,12.10
2022-09-17T06:37:36.355Z,12.04
2022-09-17T06:39:08.064Z,11.98
2022-09-17T06:40:39.644Z,11.97
2022-09-17T06:42:12.517Z,12.00
2022-09-17T06:43:44.925Z,11.93
2022-09-17T06:45:17.000Z,11.96
2022-09-17T06:46:49.142Z,12.03
2022-09-17T06:48:20.774Z,12.12
2022-09-17T06:49:52.847Z,12.18
2022-09-17T06:51:24.297Z,12.30
2022-09-17T06:52:55.968Z,12.34
2022-09-17T06:54:27.401Z,12.40
2022-09-17T06:56:03.623Z,12.46
2022-09-17T06:57:38.969Z,12.57
2022-09-17T06:59:10.499Z,12.65
2022-09-17T07:00:42.249Z,12.85
2022-09-17T07:02:13.981Z,13.02
2022-09-17T07:03:45.593Z,13.18
2022-09-17T07:05:17.081Z,13.18
2022-09-17T07:06:48.531Z,12.99
2022-09-17T07:08:19.950Z,13.05
2022-09-17T07:09:53.687Z,13.40
2022-09-17T07:11:25.147Z,13.72
2022-09-17T07:12:58.902Z,13.71
2022-09-17T07:14:30.352Z,13.50
2022-09-17T07:16:02.790Z,13.48
2022-09-17T07:17:34.564Z,13.35
2022-09-17T07:19:06.895Z,13.21
2022-09-17T07:20:39.118Z,13.23
2022-09-17T07:22:10.670Z,13.14
2022-09-17T07:23:42.109Z,13.20
2022-09-17T07:25:13.567Z,13.26
2022-09-17T07:26:45.015Z,13.33
2022-09-17T07:28:17.965Z,13.42
2022-09-17T07:29:49.399Z,13.38
2022-09-17T07:31:20.953Z,13.38
2022-09-17T07:32:52.474Z,13.37
2022-09-17T07:34:24.135Z,13.40
2022-09-17T07:35:56.215Z,13.51
2022-09-17T07:37:27.716Z,13.57
2022-09-17T07:38:59.170Z,13.66
2022-09-17T07:40:30.652Z,13.65
2022-09-17T07:42:04.198Z,13.65
2022-09-17T07:43:37.042Z,13.70
2022-09-17T07:45:09.785Z,13.73
2022-09-17T07:46:41.381Z,13.87
2022-09-17T07:48:12.843Z,13.97
2022-09-17T07:49:44.320Z,13.98
2022-09-17T07:51:16.541Z,14.13
2022-09-17T07:52:48.472Z,14.36
2022-09-17T07:54:20.035Z,14.39
2022-09-17T07:55:52.162Z,14.46
2022-09-17T07:57:23.639Z,14.39
2022-09-17T07:58:56.446Z,14.34
2022-09-17T08:00:27.890Z,14.37
2022-09-17T08:01:59.460Z,14.41
2022-09-17T08:03:31.151Z,14.42
2022-09-17T08:05:02.770Z,14.45
2022-09-17T08:06:37.632Z,14.58
2022-09-17T08:08:09.165Z,14.76
2022-09-17T08:09:40.592Z,14.89
2022-09-17T08:11:12.659Z,14.84
2022-09-17T08:12:44.161Z,14.78
2022-09-17T08:14:17.155Z,14.72
2022-09-17T08:15:48.954Z,14.74
2022-09-17T08:17:20.496Z,14.69
2022-09-17T08:18:54.551Z,14.66
2022-09-17T08:20:26.284Z,14.81
2022-09-17T08:21:57.738Z,15.00
2022-09-17T08:23:29.968Z,15.21
2022-09-17T08:25:04.043Z,15.23
2022-09-17T08:26:44.487Z,15.28
2022-09-17T08:28:15.917Z,15.33
2022-09-17T08:29:47.520Z,15.34
2022-09-17T08:31:19.599Z,15.36
2022-09-17T08:32:51.167Z,15.36
2022-09-17T08:34:22.665Z,15.28
2022-09-17T08:35:54.700Z,15.27
2022-09-17T08:37:26.368Z,15.36
2022-09-17T08:38:58.598Z,15.42
2022-09-17T08:40:31.305Z,15.50
2022-09-17T08:42:07.993Z,15.60
2022-09-17T08:43:42.261Z,15.71
2022-09-17T08:45:14.448Z,15.80
2022-09-17T08:46:47.290Z,15.82
2022-09-17T08:48:19.179Z,15.64
2022-09-17T08:49:52.008Z,15.59
2022-09-17T08:51:32.294Z,15.60
2022-09-17T08:53:14.111Z,15.55
2022-09-17T08:54:50.323Z,15.62
2022-09-17T08:56:21.899Z,15.77
2022-09-17T08:57:59.443Z,15.76
2022-09-17T08:59:35.946Z,15.74
2022-09-17T09:01:20.903Z,15.90
2022-09-17T09:03:08.637Z,16.03
2022-09-17T09:04:52.778Z,15.99
2022-09-17T09:06:27.422Z,15.78
2022-09-17T09:08:03.199Z,15.63
2022-09-17T09:09:37.907Z,15.41
2022-09-17T09:11:13.650Z,15.38
2022-09-17T09:12:45.539Z,15.43
2022-09-17T09:14:21.328Z,15.50
2022-09-17T09:15:55.425Z,15.64
2022-09-17T09:17:29.216Z,15.77
2022-09-17T09:19:05.114Z,15.77
2022-09-17T09:20:40.366Z,15.98
2022-09-17T09:22:20.699Z,16.11
2022-09-17T09:23:54.289Z,16.13
2022-09-17T09:25:29.869Z,16.02
2022-09-17T09:27:05.674Z,16.06
2022-09-17T09:28:42.933Z,16.19
2022-09-17T09:30:16.612Z,16.10
2022-09-17T09:31:56.584Z,15.91
2022-09-17T09:33:30.801Z,15.73
2022-09-17T09:35:05.265Z,15.68
2022-09-17T09:36:38.617Z,15.69
2022-09-17T09:38:16.074Z,15.69
2022-09-17T09:39:50.264Z,15.78
2022-09-17T09:41:25.826Z,15.95
2022-09-17T09:43:00.746Z,16.03
2022-09-17T09:44:32.599Z,16.18
2022-09-17T09:46:17.283Z,16.30
2022-09-17T09:47:54.013Z,16.20
2022-09-17T09:49:33.156Z,16.13
2022-09-17T09:51:13.476Z,16.11
2022-09-17T09:52:51.483Z,15.96
2022-09-17T09:54:29.134Z,15.77
2022-09-17T09:56:06.172Z,15.70
2022-09-17T09:57:52.941Z,15.65
2022-09-17T09:59:26.567Z,15.55
2022-09-17T10:00:58.641Z,15.51
2022-09-17T10:02:32.291Z,15.52
2022-09-17T10:04:14.654Z,15.75
2022-09-17T10:05:53.114Z,15.94
2022-09-17T10:07:24.655Z,16.13
2022-09-17T10:09:10.225Z,16.34
2022-09-17T10:10:53.753Z,16.33
2022-09-17T10:12:25.229Z,16.25
2022-09-17T10:14:13.626Z,16.28
2022-09-17T10:15:45.245Z,16.28
2022-09-17T10:17:21.021Z,16.36
2022-09-17T10:19:11.630Z,16.39
2022-09-17T10:20:50.234Z,16.54
2022-09-17T10:22:28.040Z,16.60
2022-09-17T10:23:59.949Z,16.58
2022-09-17T10:25:32.455Z,16.53
2022-09-17T10:27:05.481Z,16.66
2022-09-17T10:28:43.973Z,16.67
2022-09-17T10:30:17.100Z,16.64
2022-09-17T10:31:49.796Z,16.63
2022-09-17T10:33:22.914Z,16.50
2022-09-17T10:35:00.369Z,16.49
2022-09-17T10:36:40.221Z,16.54
2022-09-17T10:38:26.388Z,16.64
2022-09-17T10:39:57.933Z,16.77
2022-09-17T10:41:29.614Z,16.77
2022-09-17T10:43:17.516Z,16.72
2022-09-17T10:44:52.788Z,16.63
2022-09-17T10:46:27.945Z,16.50
2022-09-17T10:48:00.050Z,16.41
2022-09-17T10:49:35.552Z,16.39
2022-09-17T10:51:10.620Z,16.44
2022-09-17T10:52:47.165Z,16.70
2022-09-17T10:54:27.203Z,16.89
2022-09-17T10:56:06.252Z,16.96
2022-09-17T10:57:56.873Z,17.00
2022-09-17T10:59:44.489Z,17.01
2022-09-17T11:01:29.649Z,17.08
2022-09-17T11:03:17.218Z,17.13
2022-09-17T11:04:53.764Z,17.07
2022-09-17T11:06:58.261Z,17.02
2022-09-17T11:08:33.936Z,17.17
2022-09-17T11:10:12.628Z,17.19
2022-09-17T11:11:51.716Z,17.08
2022-09-17T11:13:30.946Z,17.10
2022-09-17T11:15:07.251Z,16.98
2022-09-17T11:16:41.742Z,16.85
2022-09-17T11:18:32.710Z,16.71
2022-09-17T11:20:05.722Z,16.63
2022-09-17T11:21:45.323Z,16.55
2022-09-17T11:23:27.606Z,16.43
2022-09-17T11:25:15.426Z,15.56
2022-09-17T11:26:52.246Z,14.59
2022-09-17T11:28:32.481Z,13.74
2022-09-17T11:30:14.220Z,13.12
2022-09-17T11:31:50.492Z,12.56
2022-09-17T11:33:33.141Z,12.29
2022-09-17T11:35:08.823Z,12.22
2022-09-17T11:36:46.056Z,12.29
2022-09-17T11:38:20.202Z,12.42
2022-09-17T11:39:55.109Z,12.51
2022-09-17T11:41:31.508Z,12.66
2022-09-17T11:43:05.059Z,12.92
2022-09-17T11:44:38.791Z,13.06
2022-09-17T11:46:14.421Z,13.18
2022-09-17T11:47:48.315Z,13.28
2022-09-17T11:49:25.714Z,13.44
2022-09-17T11:50:58.924Z,13.47
2022-09-17T11:52:33.160Z,13.47
2022-09-17T11:54:07.575Z,13.58
2022-09-17T11:55:42.702Z,13.67
2022-09-17T11:57:18.901Z,13.72
2022-09-17T11:58:53.582Z,13.75
2022-09-17T12:00:25.357Z,13.79
2022-09-17T12:02:00.388Z,13.89
2022-09-17T12:03:34.773Z,14.05
2022-09-17T12:05:09.683Z,14.20
2022-09-17T12:06:44.601Z,14.35
2022-09-17T12:08:18.290Z,14.43
2022-09-17T12:09:53.536Z,14.49
2022-09-17T12:11:29.310Z,14.52
2022-09-17T12:13:07.207Z,14.57
2022-09-17T12:14:44.414Z,14.69
2022-09-17T12:16:19.170Z,14.75
2022-09-17T12:18:08.689Z,14.86
2022-09-17T12:19:47.765Z,14.97
2022-09-17T12:21:21.406Z,15.22
2022-09-17T12:22:54.089Z,15.57
2022-09-17T12:24:26.721Z,15.79
2022-09-17T12:26:02.947Z,16.01
2022-09-17T12:27:38.321Z,16.12
2022-09-17T12:29:19.224Z,16.06
2022-09-17T12:30:57.005Z,15.90
2022-09-17T12:32:36.175Z,15.77
2022-09-17T12:34:18.947Z,15.64
2022-09-17T12:36:09.209Z,15.54
2022-09-17T12:37:45.438Z,14.87
2022-09-17T12:39:29.886Z,13.22
2022-09-17T12:41:04.786Z,11.72
2022-09-17T12:42:50.211Z,11.57
2022-09-17T12:44:35.463Z,11.99
2022-09-17T12:46:14.082Z,11.97
2022-09-17T12:47:55.939Z,12.22
2022-09-17T12:49:34.620Z,12.47
2022-09-17T12:51:14.492Z,12.29
2022-09-17T12:52:54.060Z,12.40
2022-09-17T12:54:45.446Z,12.69
2022-09-17T12:56:23.184Z,12.80
2022-09-17T12:58:00.586Z,12.82
2022-09-17T12:59:36.098Z,12.77
2022-09-17T13:01:14.495Z,12.80
2022-09-17T13:02:49.460Z,12.63
2022-09-17T13:04:56.757Z,12.48
2022-09-17T13:06:39.806Z,12.29
2022-09-17T13:08:24.735Z,12.16
2022-09-17T13:10:23.202Z,12.18
2022-09-17T13:12:12.325Z,12.08
2022-09-17T13:13:46.265Z,12.18
2022-09-17T13:15:35.195Z,12.21
2022-09-17T13:17:10.713Z,12.47
2022-09-17T13:18:59.307Z,12.57
2022-09-17T13:20:40.770Z,12.93
2022-09-17T13:22:16.662Z,13.28
2022-09-17T13:23:49.542Z,13.70
2022-09-17T13:25:25.536Z,13.83
2022-09-17T13:27:05.076Z,14.19
2022-09-17T13:28:38.378Z,14.46
2022-09-17T13:30:14.038Z,14.34
2022-09-17T13:31:48.668Z,14.59
2022-09-17T13:33:34.992Z,14.96
2022-09-17T13:35:21.386Z,14.96
2022-09-17T13:36:54.733Z,15.11
2022-09-17T13:38:26.244Z,15.38
2022-09-17T13:39:58.582Z,15.16
2022-09-17T13:41:32.888Z,15.03
2022-09-17T13:43:07.404Z,14.98
2022-09-17T13:44:41.217Z,15.23
2022-09-17T13:46:16.760Z,15.18
2022-09-17T13:47:50.948Z,15.23
2022-09-17T13:49:22.400Z,15.41
2022-09-17T13:50:53.909Z,15.65
2022-09-17T13:52:37.343Z,15.85
2022-09-17T13:54:10.458Z,15.94
2022-09-17T13:55:43.488Z,15.64
2022-09-17T13:57:15.516Z,15.50
2022-09-17T13:58:47.126Z,15.65
2022-09-17T14:00:37.157Z,15.83
2022-09-17T14:02:32.408Z,15.79
2022-09-17T14:04:05.027Z,15.51
2022-09-17T14:05:36.489Z,15.43
2022-09-17T14:07:26.577Z,15.42
2022-09-17T14:08:59.456Z,15.53
2022-09-17T14:10:35.347Z,15.59
2022-09-17T14:12:21.734Z,15.50
2022-09-17T14:13:54.164Z,15.45
2022-09-17T14:15:34.377Z,15.36
2022-09-17T14:17:06.963Z,15.22
2022-09-17T14:18:56.756Z,15.22
2022-09-17T14:20:28.646Z,15.25
2022-09-17T14:22:01.401Z,15.34
2022-09-17T14:23:34.067Z,15.51
2022-09-17T14:25:15.572Z,15.71
2022-09-17T14:26:53.225Z,15.77
2022-09-17T14:28:30.120Z,15.91
2022-09-17T14:30:07.748Z,16.00
2022-09-17T14:31:39.563Z,16.12
2022-09-17T14:33:16.862Z,16.28
2022-09-17T14:34:49.145Z,16.54
2022-09-17T14:36:22.142Z,16.76
2022-09-17T14:37:55.509Z,16.91
2022-09-17T14:39:28.477Z,16.86
2022-09-17T14:41:04.212Z,16.70
2022-09-17T14:42:36.484Z,16.54
2022-09-17T14:44:14.834Z,16.47
2022-09-17T14:45:48.509Z,16.28
2022-09-17T14:47:20.269Z,16.28
2022-09-17T14:48:51.864Z,16.37
2022-09-17T14:50:24.605Z,16.36
2022-09-17T14:51:56.795Z,16.40
2022-09-17T14:53:28.398Z,16.36
2022-09-17T14:55:10.077Z,16.40
2022-09-17T14:56:47.077Z,16.46
2022-09-17T14:58:27.544Z,16.54
2022-09-17T14:59:59.678Z,16.60
2022-09-17T15:01:31.604Z,16.61
2022-09-17T15:03:03.292Z,16.45
2022-09-17T15:04:34.884Z,16.34
2022-09-17T15:06:18.205Z,16.38
2022-09-17T15:07:50.337Z,16.31
2022-09-17T15:09:23.918Z,16.33
2022-09-17T15:10:57.251Z,16.14
2022-09-17T15:12:30.254Z,15.98
2022-09-17T15:14:05.946Z,16.03
2022-09-17T15:15:37.503Z,16.08
2022-09-17T15:17:13.498Z,16.12
2022-09-17T15:18:48.394Z,15.95
2022-09-17T15:20:21.418Z,15.86
2022-09-17T15:21:55.205Z,15.77
2022-09-17T15:23:28.223Z,15.70
2022-09-17T15:25:02.378Z,15.70
2022-09-17T15:26:35.601Z,15.71
2022-09-17T15:28:14.279Z,15.74
2022-09-17T15:29:48.773Z,15.60
2022-09-17T15:31:20.830Z,15.49
2022-09-17T15:32:53.999Z,15.47
2022-09-17T15:34:25.626Z,15.48
2022-09-17T15:36:02.044Z,15.53
2022-09-17T15:37:33.612Z,15.67
2022-09-17T15:39:19.992Z,15.68
2022-09-17T15:40:51.710Z,15.68
2022-09-17T15:42:26.361Z,15.64
2022-09-17T15:44:29.025Z,15.58
2022-09-17T15:46:21.094Z,15.53
2022-09-17T15:47:54.405Z,15.54
2022-09-17T15:49:30.602Z,15.49
2022-09-17T15:51:03.762Z,15.44
2022-09-17T15:52:35.274Z,15.49
2022-09-17T15:54:07.686Z,15.50
2022-09-17T15:55:42.715Z,15.49
2022-09-17T15:57:16.231Z,15.47
2022-09-17T15:58:55.272Z,15.45
2022-09-17T16:00:28.150Z,15.40
2022-09-17T16:02:01.466Z,15.42
2022-09-17T16:04:02.871Z,15.51
2022-09-17T16:05:44.743Z,15.54
2022-09-17T16:07:31.924Z,15.53
2022-09-17T16:09:04.066Z,15.52
2022-09-17T16:10:35.568Z,15.43
2022-09-17T16:12:07.281Z,15.40
2022-09-17T16:13:38.778Z,15.41
2022-09-17T16:15:12.660Z,15.40
2022-09-17T16:16:46.398Z,15.43
2022-09-17T16:18:18.181Z,15.36
2022-09-17T16:19:49.685Z,15.33
2022-09-17T16:21:21.235Z,15.39
2022-09-17T16:22:53.324Z,15.42
2022-09-17T16:24:24.774Z,15.45
2022-09-17T16:25:57.241Z,15.48
2022-09-17T16:27:30.767Z,15.51
2022-09-17T16:29:04.924Z,15.46
2022-09-17T16:30:36.439Z,15.42
2022-09-17T16:32:10.394Z,15.39
2022-09-17T16:33:41.835Z,15.41
2022-09-17T16:35:17.262Z,15.32
2022-09-17T16:36:50.045Z,15.27
2022-09-17T16:38:21.540Z,15.17
2022-09-17T16:39:53.113Z,15.16
2022-09-17T16:41:24.622Z,15.05
2022-09-17T16:42:56.077Z,15.04
2022-09-17T16:44:27.519Z,15.08
2022-09-17T16:45:59.538Z,15.02
2022-09-17T16:47:36.973Z,14.97
2022-09-17T16:49:08.450Z,15.00
2022-09-17T16:50:41.135Z,15.00
2022-09-17T16:52:12.633Z,15.00
2022-09-17T16:53:44.269Z,15.00
2022-09-17T16:55:16.678Z,15.03
2022-09-17T16:56:48.377Z,15.04
2022-09-17T16:58:19.847Z,14.99
2022-09-17T16:59:51.387Z,14.94
2022-09-17T17:01:22.935Z,14.89
2022-09-17T17:02:56.754Z,14.90
2022-09-17T17:04:28.344Z,14.85
2022-09-17T17:05:59.793Z,14.78
2022-09-17T17:07:34.181Z,14.73
2022-09-17T17:09:05.636Z,14.66
2022-09-17T17:10:38.170Z,14.64
2022-09-17T17:12:09.757Z,14.62
2022-09-17T17:13:41.589Z,14.61
2022-09-17T17:15:13.292Z,14.66
2022-09-17T17:16:44.863Z,14.67
2022-09-17T17:18:19.529Z,14.61
2022-09-17T17:19:51.003Z,14.63
2022-09-17T17:21:22.502Z,14.62
2022-09-17T17:22:54.776Z,14.55
2022-09-17T17:24:26.368Z,14.53
2022-09-17T17:25:57.998Z,14.46
2022-09-17T17:27:29.874Z,14.41
2022-09-17T17:29:02.761Z,14.41
2022-09-17T17:30:35.197Z,14.41
2022-09-17T17:32:07.067Z,14.39
2022-09-17T17:33:39.863Z,14.37
2022-09-17T17:35:11.390Z,14.38
2022-09-17T17:36:42.902Z,14.35
2022-09-17T17:38:16.645Z,14.38
2022-09-17T17:39:48.089Z,14.46
2022-09-17T17:41:22.702Z,14.54
2022-09-17T17:42:54.769Z,14.55
2022-09-17T17:44:26.304Z,14.54
2022-09-17T17:45:57.767Z,14.49
2022-09-17T17:47:29.282Z,14.43
2022-09-17T17:49:02.348Z,14.43
2022-09-17T17:50:33.856Z,14.42
2022-09-17T17:52:05.705Z,14.42
2022-09-17T17:53:37.545Z,14.42
2022-09-17T17:55:09.176Z,14.41
2022-09-17T17:56:40.781Z,14.39
2022-09-17T17:58:12.222Z,14.41
2022-09-17T17:59:43.772Z,14.38
2022-09-17T18:01:16.244Z,14.35
2022-09-17T18:02:49.393Z,14.39
2022-09-17T18:04:22.683Z,14.42
2022-09-17T18:05:56.348Z,14.44
2022-09-17T18:07:28.477Z,14.42
2022-09-17T18:09:00.227Z,14.43
2022-09-17T18:10:31.705Z,14.43
2022-09-17T18:12:03.194Z,14.35
2022-09-17T18:13:35.053Z,14.32
2022-09-17T18:15:07.229Z,14.27
2022-09-17T18:16:38.917Z,14.22
2022-09-17T18:18:10.411Z,14.20
2022-09-17T18:19:43.180Z,14.21
2022-09-17T18:21:16.053Z,14.15
2022-09-17T18:22:48.324Z,14.10
2022-09-17T18:24:19.921Z,14.17
2022-09-17T18:25:55.116Z,14.22
2022-09-17T18:27:26.644Z,14.28
2022-09-17T18:28:58.168Z,14.29
2022-09-17T18:30:29.608Z,14.34
2022-09-17T18:32:01.192Z,14.38
2022-09-17T18:33:33.218Z,14.39
2022-09-17T18:35:06.546Z,14.46
2022-09-17T18:36:39.462Z,14.56
2022-09-17T18:38:10.934Z,14.64
2022-09-17T18:39:58.073Z,14.70
2022-09-17T18:41:30.864Z,14.78
2022-09-17T18:43:02.340Z,14.83
2022-09-17T18:44:33.834Z,14.91
2022-09-17T18:46:05.489Z,14.96
2022-09-17T18:47:37.006Z,15.01
2022-09-17T18:49:08.486Z,15.04
2022-09-17T18:50:41.343Z,15.06
2022-09-17T18:52:12.881Z,15.09
2022-09-17T18:53:47.251Z,15.12
2022-09-17T18:55:22.371Z,15.14
2022-09-17T18:56:53.865Z,15.17
2022-09-17T18:58:25.339Z,15.17
2022-09-17T18:59:58.376Z,15.11
2022-09-17T19:01:30.997Z,15.07
2022-09-17T19:03:02.520Z,14.98
2022-09-17T19:04:33.975Z,14.86
2022-09-17T19:06:08.507Z,14.74
2022-09-17T19:07:43.330Z,14.59
2022-09-17T19:09:14.809Z,14.42
2022-09-17T19:10:49.815Z,14.33
2022-09-17T19:12:21.304Z,14.24
2022-09-17T19:13:52.774Z,14.17
2022-09-17T19:15:24.201Z,14.12
2022-09-17T19:16:55.643Z,14.09
2022-09-17T19:18:27.189Z,14.06
2022-09-17T19:19:58.676Z,14.04
2022-09-17T19:21:31.561Z,14.01
2022-09-17T19:23:03.015Z,14.00
2022-09-17T19:24:34.703Z,13.97
2022-09-17T19:26:06.956Z,13.96
2022-09-17T19:27:39.178Z,13.97
2022-09-17T19:29:11.529Z,13.96
2022-09-17T19:30:43.000Z,13.97
2022-09-17T19:32:14.967Z,13.92
2022-09-17T19:33:46.795Z,13.93
2022-09-17T19:35:18.284Z,13.92
2022-09-17T19:36:51.201Z,13.90
2022-09-17T19:38:25.032Z,13.89
2022-09-17T19:39:56.608Z,13.90
2022-09-17T19:41:28.096Z,13.89
2022-09-17T19:42:59.594Z,13.88
2022-09-17T19:44:31.078Z,13.92
2022-09-17T19:46:02.982Z,13.95
2022-09-17T19:47:34.531Z,13.94
2022-09-17T19:49:06.055Z,13.94
2022-09-17T19:50:37.538Z,13.96
2022-09-17T19:52:10.403Z,13.94
2022-09-17T19:53:43.111Z,13.94
2022-09-17T19:55:14.788Z,13.95
2022-09-17T19:56:47.379Z,13.92
2022-09-17T19:58:18.848Z,13.87
2022-09-17T19:59:50.376Z,13.82
2022-09-17T20:01:21.943Z,13.76
2022-09-17T20:02:53.497Z,13.72
2022-09-17T20:04:25.072Z,13.67
2022-09-17T20:05:59.778Z,13.66
2022-09-17T20:07:33.497Z,13.67
2022-09-17T20:09:04.978Z,13.68
2022-09-17T20:10:37.677Z,13.66
2022-09-17T20:12:09.191Z,13.62
2022-09-17T20:13:40.725Z,13.64
2022-09-17T20:15:12.178Z,13.63
2022-09-17T20:16:44.961Z,13.61
2022-09-17T20:18:21.160Z,13.60